Time;durP1;ratioP1;P1;durP2;ratioP2;P2;SDS_P1;SDS_P2;PMS_P1;PMS_P2;Temp;Humidity;BMP_temperature;BMP_pressure;BME280_temperature;BME280_humidity;BME280_pressure;Samples;Min_cycle;Max_cycle;Signal;HPM_P1;HPM_P2
2022/06/03 00:00:43;;;;;;;5.30;4.80;;;14.70;99.90;;;;;;5069336;28;20487;-71
2022/06/03 00:03:28;;;;;;;5.10;4.70;;;14.70;99.90;;;;;;5071171;28;20435;-71
2022/06/03 00:06:21;;;;;;;6.57;5.97;;;14.70;99.90;;;;;;5070907;28;20443;-71
2022/06/03 00:09:17;;;;;;;6.33;5.17;;;14.70;99.90;;;;;;5067569;28;20490;-70
2022/06/03 00:12:04;;;;;;;6.73;6.13;;;14.60;99.90;;;;;;5069891;28;20483;-70
2022/06/03 00:14:45;;;;;;;7.97;5.67;;;14.60;99.90;;;;;;5070504;28;20450;-70
2022/06/03 00:17:28;;;;;;;6.77;5.63;;;14.60;99.90;;;;;;5070945;28;20443;-70
2022/06/03 00:20:08;;;;;;;7.27;5.90;;;14.60;99.90;;;;;;5070058;28;20443;-69
2022/06/03 00:23:03;;;;;;;6.40;5.80;;;14.60;99.90;;;;;;5070830;28;20478;-70
2022/06/03 00:25:48;;;;;;;6.53;5.63;;;14.50;99.90;;;;;;5069932;28;20451;-70
2022/06/03 00:28:44;;;;;;;5.87;5.27;;;14.30;99.90;;;;;;5070588;28;20780;-70
2022/06/03 00:31:22;;;;;;;5.67;5.17;;;14.20;99.90;;;;;;5069574;28;20482;-70
2022/06/03 00:34:10;;;;;;;6.30;5.70;;;14.20;99.90;;;;;;5070281;28;20453;-71
2022/06/03 00:36:52;;;;;;;6.37;5.77;;;14.00;99.90;;;;;;5070014;28;20446;-70
2022/06/03 00:39:54;;;;;;;5.90;5.40;;;13.90;99.90;;;;;;5070475;28;20435;-70
2022/06/03 00:42:42;;;;;;;6.47;5.57;;;13.90;99.90;;;;;;5065027;28;20465;-70
2022/06/03 00:45:32;;;;;;;5.93;5.33;;;13.90;99.90;;;;;;5069750;28;21016;-71
2022/06/03 00:48:29;;;;;;;6.00;5.40;;;13.90;99.90;;;;;;5070117;28;21036;-71
2022/06/03 00:51:30;;;;;;;6.77;6.17;;;13.80;99.90;;;;;;5058500;28;21011;-71
2022/06/03 00:54:36;;;;;;;6.20;5.60;;;13.70;99.90;;;;;;5070061;28;20485;-71
2022/06/03 00:57:53;;;;;;;6.07;5.47;;;13.70;99.90;;;;;;4988053;28;20443;-71
2022/06/03 01:00:24;;;;;;;5.77;5.27;;;13.80;99.90;;;;;;5068957;28;20467;-68
2022/06/03 01:03:07;;;;;;;6.00;5.40;;;13.90;99.90;;;;;;5069804;28;20447;-70
2022/06/03 01:05:58;;;;;;;5.40;4.90;;;14.00;99.90;;;;;;5069376;28;20451;-70
2022/06/03 01:08:39;;;;;;;6.17;5.57;;;13.90;99.90;;;;;;5070016;28;20444;-70
2022/06/03 01:11:20;;;;;;;6.37;5.57;;;13.80;99.90;;;;;;5068574;28;20477;-71
2022/06/03 01:14:04;;;;;;;5.17;4.77;;;13.80;99.90;;;;;;5069673;28;20541;-70
2022/06/03 01:16:53;;;;;;;5.80;5.30;;;13.60;99.90;;;;;;5069378;28;20451;-70
2022/06/03 01:19:45;;;;;;;6.20;5.60;;;13.50;99.90;;;;;;5070042;28;21067;-68
2022/06/03 01:22:49;;;;;;;6.70;6.10;;;13.50;99.90;;;;;;5069958;28;20473;-68
2022/06/03 01:25:42;;;;;;;6.50;5.90;;;13.50;99.90;;;;;;5049341;28;20462;-69
2022/06/03 01:28:45;;;;;;;5.57;5.07;;;13.50;99.90;;;;;;5069985;28;20453;-69
2022/06/03 01:31:57;;;;;;;5.37;4.97;;;13.40;99.90;;;;;;5038691;28;20474;-70
2022/06/03 01:34:39;;;;;;;6.53;5.93;;;13.40;99.90;;;;;;5069762;28;20427;-70
2022/06/03 01:37:16;;;;;;;5.80;4.93;;;13.40;99.90;;;;;;5069781;28;20439;-70
2022/06/03 01:40:22;;;;;;;6.10;5.50;;;13.50;99.90;;;;;;5069557;28;20430;-69
2022/06/03 01:43:11;;;;;;;5.63;5.13;;;13.50;99.90;;;;;;5054028;28;20454;-70
2022/06/03 01:46:03;;;;;;;6.00;5.40;;;13.50;99.90;;;;;;5069170;28;20458;-69
2022/06/03 01:48:50;;;;;;;6.57;5.97;;;13.50;99.90;;;;;;5069287;28;20453;-70
2022/06/03 01:51:52;;;;;;;6.70;5.97;;;13.40;99.90;;;;;;5068801;28;20467;-70
2022/06/03 01:54:46;;;;;;;6.23;5.60;;;13.50;99.90;;;;;;5068953;28;20965;-69
2022/06/03 01:57:44;;;;;;;6.33;5.73;;;13.50;99.90;;;;;;5069376;28;20455;-69
2022/06/03 02:00:26;;;;;;;5.90;5.30;;;13.40;99.90;;;;;;5068502;28;20459;-70
2022/06/03 02:03:28;;;;;;;7.83;6.30;;;13.30;99.90;;;;;;5069398;28;20453;-69
2022/06/03 02:06:38;;;;;;;6.47;5.43;;;13.30;99.90;;;;;;5069120;28;20451;-70
2022/06/03 02:09:26;;;;;;;6.03;5.40;;;13.10;99.90;;;;;;5068746;28;20479;-70
2022/06/03 02:12:12;;;;;;;6.23;5.60;;;13.10;99.90;;;;;;5068690;28;20496;-69
2022/06/03 02:15:19;;;;;;;6.37;5.87;;;13.00;99.90;;;;;;5068865;28;20449;-70
2022/06/03 02:18:24;;;;;;;8.97;5.90;;;13.00;99.90;;;;;;5069211;28;20447;-71
2022/06/03 02:21:15;;;;;;;6.33;5.73;;;13.10;99.90;;;;;;5068489;28;20473;-70
2022/06/03 02:24:10;;;;;;;6.10;5.50;;;13.10;99.90;;;;;;5070383;28;20500;-69
2022/06/03 02:27:05;;;;;;;6.40;5.57;;;13.00;99.90;;;;;;5072501;28;20944;-71
2022/06/03 02:33:15;;;;;;;6.43;5.90;;;13.00;99.90;;;;;;5072864;28;20418;-69
2022/06/03 02:36:04;;;;;;;6.67;6.07;;;13.00;99.90;;;;;;5072371;28;20442;-69
2022/06/03 02:38:47;;;;;;;6.43;5.93;;;12.90;99.90;;;;;;5072672;28;20439;-71
2022/06/03 02:41:45;;;;;;;6.40;5.90;;;12.90;99.90;;;;;;5071629;28;20498;-70
2022/06/03 02:44:41;;;;;;;8.10;7.33;;;12.90;99.90;;;;;;5072665;28;20447;-70
2022/06/03 02:47:49;;;;;;;7.23;6.43;;;13.00;99.90;;;;;;5071101;28;20471;-70
2022/06/03 02:50:41;;;;;;;7.07;6.30;;;13.00;99.90;;;;;;5031765;28;20509;-69
2022/06/03 02:53:59;;;;;;;6.23;5.63;;;13.00;99.90;;;;;;5072451;28;20453;-70
2022/06/03 02:56:51;;;;;;;6.40;5.10;;;13.10;99.90;;;;;;5072017;28;20458;-69
2022/06/03 02:59:44;;;;;;;6.90;6.20;;;13.10;99.90;;;;;;5072337;28;20447;-71
2022/06/03 03:02:32;;;;;;;7.83;7.13;;;13.00;99.90;;;;;;5061091;28;20478;-70
2022/06/03 03:05:33;;;;;;;8.27;7.50;;;12.90;99.90;;;;;;5071804;28;20447;-70
2022/06/03 03:08:33;;;;;;;8.20;6.50;;;12.80;99.90;;;;;;5051893;28;20459;-71
2022/06/03 03:11:18;;;;;;;7.63;6.70;;;12.90;99.90;;;;;;5071292;28;20491;-70
2022/06/03 03:14:19;;;;;;;7.43;6.73;;;12.90;99.90;;;;;;5072159;28;20462;-69
2022/06/03 03:17:10;;;;;;;8.00;7.20;;;12.90;99.90;;;;;;5072187;28;20500;-70
2022/06/03 03:19:59;;;;;;;9.00;6.70;;;12.80;99.90;;;;;;5071995;28;20431;-70
2022/06/03 03:22:56;;;;;;;8.07;7.30;;;12.80;99.90;;;;;;5068711;28;20502;-70
2022/06/03 03:25:33;;;;;;;9.00;6.90;;;12.70;99.90;;;;;;5069058;28;20481;-69
2022/06/03 03:28:36;;;;;;;7.07;6.47;;;12.70;99.90;;;;;;5071711;28;20434;-71
2022/06/03 03:31:23;;;;;;;7.40;6.70;;;12.80;99.90;;;;;;5070951;28;20501;-70
2022/06/03 03:34:13;;;;;;;7.10;6.50;;;12.80;99.90;;;;;;5071829;28;20443;-70
2022/06/03 03:37:11;;;;;;;8.10;6.47;;;12.80;99.90;;;;;;5070652;28;20443;-69
2022/06/03 03:40:04;;;;;;;7.73;6.20;;;12.80;99.90;;;;;;5071709;28;20813;-69
2022/06/03 03:43:00;;;;;;;7.80;7.00;;;12.80;99.90;;;;;;5071096;28;20454;-70
2022/06/03 03:45:55;;;;;;;6.97;6.27;;;12.80;99.90;;;;;;5071109;28;20459;-69
2022/06/03 03:48:45;;;;;;;8.50;7.50;;;12.80;99.90;;;;;;5036973;28;20440;-69
2022/06/03 03:51:33;;;;;;;7.63;6.90;;;12.80;99.90;;;;;;5070378;28;20495;-70
2022/06/03 03:54:34;;;;;;;7.23;6.53;;;12.80;99.90;;;;;;5071342;28;20530;-70
2022/06/03 03:57:51;;;;;;;9.53;6.63;;;12.90;99.90;;;;;;5023863;28;20465;-69
2022/06/03 04:00:47;;;;;;;7.40;6.63;;;13.00;99.90;;;;;;5070541;28;20467;-69
2022/06/03 04:03:46;;;;;;;9.23;8.17;;;13.10;99.90;;;;;;5071590;28;20443;-70
2022/06/03 04:06:51;;;;;;;8.10;6.30;;;13.10;99.90;;;;;;5070797;28;20446;-71
2022/06/03 04:09:56;;;;;;;8.47;7.60;;;13.20;99.90;;;;;;5057316;28;20462;-69
2022/06/03 04:12:45;;;;;;;7.73;7.03;;;13.20;99.90;;;;;;5070750;28;20553;-70
2022/06/03 04:15:54;;;;;;;10.87;8.80;;;13.10;99.90;;;;;;5070188;28;20447;-70
2022/06/03 04:18:45;;;;;;;7.33;6.63;;;13.10;99.90;;;;;;5011261;28;20454;-71
2022/06/03 04:21:31;;;;;;;8.17;7.37;;;13.10;99.90;;;;;;5043404;28;20470;-70
2022/06/03 04:24:35;;;;;;;8.00;7.30;;;13.10;99.90;;;;;;5070893;28;20485;-70
2022/06/03 04:27:40;;;;;;;7.87;6.80;;;13.10;99.90;;;;;;5070554;28;20443;-69
2022/06/03 04:30:44;;;;;;;7.37;6.70;;;13.10;99.90;;;;;;5069343;28;20483;-73
2022/06/03 04:33:51;;;;;;;9.50;8.60;;;13.10;99.90;;;;;;5070360;28;21180;-67
2022/06/03 04:36:51;;;;;;;9.50;8.57;;;13.10;99.90;;;;;;5069715;28;20457;-69
2022/06/03 04:39:51;;;;;;;9.67;8.80;;;13.10;99.90;;;;;;5066864;28;20465;-68
2022/06/03 04:42:57;;;;;;;9.27;8.47;;;13.10;99.90;;;;;;5070078;28;20443;-67
2022/06/03 04:45:58;;;;;;;10.27;6.67;;;13.20;99.90;;;;;;5070092;28;20441;-68
2022/06/03 04:49:13;;;;;;;11.80;8.10;;;13.30;99.90;;;;;;5070370;28;20443;-69
2022/06/03 04:52:27;;;;;;;7.60;6.90;;;13.40;99.90;;;;;;5069051;28;20491;-70
2022/06/03 04:55:27;;;;;;;7.50;6.80;;;13.40;99.90;;;;;;5069528;28;20443;-70
2022/06/03 04:58:36;;;;;;;8.07;7.40;;;13.50;99.90;;;;;;5069809;28;20458;-68
2022/06/03 05:01:38;;;;;;;6.97;6.27;;;13.70;99.90;;;;;;5067524;28;20862;-70
2022/06/03 05:04:39;;;;;;;7.20;6.50;;;13.80;99.90;;;;;;5069495;28;20495;-70
2022/06/03 05:07:43;;;;;;;8.30;7.03;;;13.90;99.90;;;;;;5053619;28;20442;-70
2022/06/03 05:10:58;;;;;;;10.40;6.93;;;14.10;99.90;;;;;;5068810;28;20509;-70
2022/06/03 05:14:20;;;;;;;7.27;6.57;;;14.30;99.90;;;;;;5069667;28;20492;-68
2022/06/03 05:17:20;;;;;;;7.27;6.67;;;14.50;99.90;;;;;;5069672;28;20455;-69
2022/06/03 05:20:25;;;;;;;11.60;7.80;;;14.70;99.90;;;;;;5085693;28;20462;-66
2022/06/03 05:23:30;;;;;;;9.40;7.10;;;14.80;99.90;;;;;;5083391;28;20473;-69
2022/06/03 05:26:39;;;;;;;8.10;7.30;;;14.90;99.90;;;;;;5036702;28;20968;-69
2022/06/03 05:29:35;;;;;;;7.87;7.03;;;15.00;99.90;;;;;;5069679;28;20962;-70
2022/06/03 05:32:36;;;;;;;9.20;7.60;;;15.20;99.90;;;;;;5068766;28;21015;-70
2022/06/03 05:35:36;;;;;;;8.43;7.53;;;15.40;99.90;;;;;;5068945;28;20886;-70
2022/06/03 05:38:20;;;;;;;9.30;7.60;;;15.40;99.90;;;;;;5069331;28;20454;-68
2022/06/03 05:41:03;;;;;;;8.13;7.40;;;15.60;99.90;;;;;;5066542;28;20470;-68
2022/06/03 05:43:51;;;;;;;8.87;8.13;;;15.70;99.90;;;;;;5068564;28;20970;-69
2022/06/03 05:46:28;;;;;;;10.30;9.13;;;15.70;99.90;;;;;;5068665;28;20451;-68
2022/06/03 05:49:11;;;;;;;9.17;8.27;;;15.80;99.90;;;;;;5069514;28;20446;-69
2022/06/03 05:52:09;;;;;;;10.57;9.27;;;15.90;99.90;;;;;;5068455;28;20988;-67
2022/06/03 05:54:46;;;;;;;9.90;9.00;;;16.00;99.90;;;;;;5065779;28;20450;-69
2022/06/03 05:57:23;;;;;;;11.40;10.40;;;16.20;99.90;;;;;;5069473;28;20452;-69
2022/06/03 06:00:07;;;;;;;10.10;9.20;;;16.30;99.90;;;;;;5072382;28;20449;-67
2022/06/03 06:02:40;;;;;;;10.00;9.00;;;16.50;99.90;;;;;;5075064;28;20811;-69
2022/06/03 06:05:31;;;;;;;11.93;9.90;;;16.70;99.90;;;;;;5073165;28;20522;-69
2022/06/03 06:08:19;;;;;;;10.57;9.57;;;16.80;99.90;;;;;;5073342;28;20876;-69
2022/06/03 06:10:54;;;;;;;10.17;9.30;;;16.90;99.90;;;;;;5072447;28;20988;-70
2022/06/03 06:13:52;;;;;;;10.10;9.17;;;17.00;99.90;;;;;;5073523;28;20439;-68
2022/06/03 06:16:21;;;;;;;9.67;8.87;;;17.10;99.90;;;;;;5072777;28;20451;-67
2022/06/03 06:18:55;;;;;;;10.83;8.63;;;17.30;99.90;;;;;;5072994;28;20449;-69
2022/06/03 06:22:07;;;;;;;9.13;8.33;;;17.30;99.90;;;;;;5072387;28;20473;-69
2022/06/03 06:24:57;;;;;;;10.83;9.57;;;17.50;99.90;;;;;;5072538;28;21029;-69
2022/06/03 06:27:59;;;;;;;8.30;7.60;;;17.60;99.90;;;;;;5073267;28;20842;-69
2022/06/03 06:30:56;;;;;;;8.70;7.90;;;17.70;99.90;;;;;;5071906;28;20518;-69
2022/06/03 06:33:59;;;;;;;9.20;8.40;;;17.90;99.90;;;;;;5068465;28;20839;-68
2022/06/03 06:36:57;;;;;;;7.83;7.10;;;18.00;99.90;;;;;;5073529;28;20943;-68
2022/06/03 06:39:49;;;;;;;7.43;6.73;;;18.20;99.90;;;;;;5073385;28;20442;-67
2022/06/03 06:42:28;;;;;;;8.20;7.30;;;18.40;99.90;;;;;;5072772;28;20467;-68
2022/06/03 06:45:12;;;;;;;9.10;8.00;;;18.60;99.90;;;;;;5072672;28;20549;-70
2022/06/03 06:47:51;;;;;;;10.23;7.80;;;18.90;99.90;;;;;;5072623;28;20929;-69
2022/06/03 06:50:22;;;;;;;7.97;7.17;;;19.30;99.90;;;;;;5071847;28;20494;-67
2022/06/03 06:53:02;;;;;;;9.00;7.67;;;19.40;99.90;;;;;;5072815;28;20454;-68
2022/06/03 06:55:39;;;;;;;9.17;7.30;;;19.70;99.90;;;;;;5072011;28;20537;-69
2022/06/03 06:58:20;;;;;;;9.50;8.60;;;19.90;99.90;;;;;;5072555;28;20482;-67
2022/06/03 07:00:49;;;;;;;44.17;12.27;;;20.20;99.90;;;;;;5071299;28;20471;-69
2022/06/03 07:03:26;;;;;;;12.40;8.10;;;20.30;99.90;;;;;;5072298;28;20458;-68
2022/06/03 07:05:56;;;;;;;8.03;7.33;;;20.40;99.90;;;;;;5071868;28;20453;-67
2022/06/03 07:08:26;;;;;;;13.30;7.97;;;20.50;99.90;;;;;;5072178;28;20455;-67
2022/06/03 07:11:00;;;;;;;15.30;8.13;;;20.60;99.90;;;;;;5071028;28;21046;-68
2022/06/03 07:13:35;;;;;;;20.07;8.73;;;20.70;99.90;;;;;;5072174;28;20443;-68
2022/06/03 07:16:09;;;;;;;9.33;7.93;;;20.80;99.90;;;;;;5071531;28;20457;-70
2022/06/03 07:21:40;;;;;;;9.53;8.30;;;20.90;99.90;;;;;;5071118;28;20438;-68
2022/06/03 07:24:14;;;;;;;10.97;8.40;;;21.00;99.90;;;;;;5072029;28;20439;-68
2022/06/03 07:26:44;;;;;;;11.00;8.90;;;21.00;99.90;;;;;;5071858;28;20447;-68
2022/06/03 07:29:18;;;;;;;12.20;8.30;;;21.00;99.90;;;;;;5071757;28;20457;-68
2022/06/03 07:31:51;;;;;;;10.50;8.63;;;21.10;99.90;;;;;;5071043;28;20850;-68
2022/06/03 07:34:21;;;;;;;8.67;7.87;;;21.10;99.90;;;;;;5071584;28;20454;-69
2022/06/03 07:36:53;;;;;;;9.50;8.60;;;21.00;99.90;;;;;;5071751;28;21000;-67
2022/06/03 07:39:47;;;;;;;9.40;8.50;;;21.10;99.90;;;;;;5068015;28;20956;-67
2022/06/03 07:42:24;;;;;;;9.67;8.50;;;21.30;99.90;;;;;;5060035;28;20466;-66
2022/06/03 07:45:01;;;;;;;8.10;7.40;;;21.30;99.90;;;;;;5061648;28;20471;-68
2022/06/03 07:47:29;;;;;;;9.20;8.30;;;21.50;99.90;;;;;;5060604;28;20467;-67
2022/06/03 07:49:58;;;;;;;8.70;7.70;;;21.60;99.90;;;;;;5059379;28;20531;-67
2022/06/03 07:52:35;;;;;;;8.50;7.70;;;21.80;99.90;;;;;;5062279;28;20478;-70
2022/06/03 07:55:09;;;;;;;8.73;6.87;;;22.00;99.90;;;;;;5060649;28;20448;-69
2022/06/03 07:57:36;;;;;;;7.10;6.40;;;22.30;99.90;;;;;;5061639;28;20459;-68
2022/06/03 08:00:12;;;;;;;6.97;6.37;;;22.50;99.90;;;;;;5060212;28;20444;-69
2022/06/03 08:02:38;;;;;;;9.35;7.20;;;22.80;99.90;;;;;;5059256;28;20865;-68
2022/06/03 08:05:11;;;;;;;8.40;7.60;;;23.00;99.90;;;;;;5062655;28;20209;-69
2022/06/03 08:13:12;;;;;;;7.03;6.43;;;23.40;99.90;;;;;;5066748;28;20522;-69
2022/06/03 08:15:50;;;;;;;6.90;6.20;;;23.40;99.90;;;;;;5070120;28;20796;-69
2022/06/03 08:18:19;;;;;;;7.10;6.40;;;23.40;99.90;;;;;;5070802;28;20439;-68
2022/06/03 08:20:51;;;;;;;11.47;6.20;;;23.40;99.90;;;;;;5069416;28;20451;-68
2022/06/03 08:23:19;;;;;;;6.57;5.97;;;23.50;99.90;;;;;;5070677;28;20454;-68
2022/06/03 08:25:50;;;;;;;7.80;5.20;;;23.60;99.90;;;;;;5069168;28;20446;-68
2022/06/03 08:28:21;;;;;;;13.43;6.83;;;23.80;99.90;;;;;;5068300;28;20439;-70
2022/06/03 08:30:52;;;;;;;7.70;6.20;;;23.90;99.90;;;;;;5069605;28;20485;-68
2022/06/03 08:33:38;;;;;;;8.00;5.50;;;24.00;99.90;;;;;;5070541;28;20823;-68
2022/06/03 08:36:07;;;;;;;6.90;5.77;;;24.20;99.90;;;;;;5069507;28;20469;-68
2022/06/03 08:38:41;;;;;;;6.80;5.57;;;24.40;99.90;;;;;;5066275;28;20462;-69
2022/06/03 08:41:24;;;;;;;8.70;5.63;;;24.60;99.90;;;;;;5068168;28;20481;-68
2022/06/03 08:44:05;;;;;;;5.90;5.20;;;24.70;99.90;;;;;;5067619;28;20437;-68
2022/06/03 08:46:37;;;;;;;7.00;6.00;;;24.80;99.90;;;;;;5069666;28;20432;-68
2022/06/03 08:49:11;;;;;;;5.47;5.00;;;24.90;99.90;;;;;;5070330;28;20443;-68
2022/06/03 08:51:44;;;;;;;7.40;5.60;;;24.90;99.90;;;;;;5069191;28;20498;-68
2022/06/03 08:54:20;;;;;;;7.33;5.07;;;25.00;99.90;;;;;;5070061;28;20983;-68
2022/06/03 08:56:50;;;;;;;5.60;5.07;;;25.10;99.90;;;;;;5069907;28;20448;-68
2022/06/03 08:59:22;;;;;;;6.10;5.10;;;25.30;99.90;;;;;;5069784;28;20439;-67
2022/06/03 09:01:55;;;;;;;7.80;4.77;;;25.60;99.90;;;;;;5068837;28;20469;-69
2022/06/03 09:04:29;;;;;;;5.80;5.33;;;26.10;99.90;;;;;;5069533;28;20449;-68
2022/06/03 09:07:04;;;;;;;5.47;4.53;;;26.50;99.90;;;;;;5067678;28;20815;-68
2022/06/03 09:09:36;;;;;;;9.27;4.90;;;26.80;99.90;;;;;;5067190;28;20447;-68
2022/06/03 09:12:13;;;;;;;16.43;5.73;;;27.00;99.90;;;;;;5063286;28;20996;-68
2022/06/03 09:14:42;;;;;;;4.90;4.50;;;27.10;99.90;;;;;;5066256;28;20950;-68
2022/06/03 09:17:32;;;;;;;7.57;5.57;;;26.90;98.60;;;;;;5069814;28;20436;-68
2022/06/03 09:20:03;;;;;;;9.73;5.80;;;26.70;99.90;;;;;;5068927;28;20445;-69
2022/06/03 09:22:32;;;;;;;7.60;5.20;;;26.80;99.90;;;;;;5070105;28;20435;-67
2022/06/03 09:25:01;;;;;;;8.30;5.10;;;26.70;99.90;;;;;;5069442;28;21016;-68
2022/06/03 09:27:31;;;;;;;6.97;5.83;;;26.90;99.90;;;;;;5069860;28;20830;-69
2022/06/03 09:30:02;;;;;;;5.97;4.43;;;26.80;99.30;;;;;;5063542;28;20470;-68
2022/06/03 09:32:34;;;;;;;8.13;5.53;;;26.90;99.90;;;;;;5065722;28;20475;-69
2022/06/03 09:35:06;;;;;;;7.97;5.50;;;26.90;98.80;;;;;;5063598;28;20447;-68
2022/06/03 09:37:36;;;;;;;6.20;4.70;;;26.80;99.90;;;;;;5065620;28;20458;-68
2022/06/03 09:40:07;;;;;;;7.67;6.33;;;27.10;99.90;;;;;;5057514;28;20447;-68
2022/06/03 09:42:35;;;;;;;6.60;5.70;;;27.60;98.10;;;;;;5059751;28;20443;-68
2022/06/03 09:45:04;;;;;;;5.73;5.13;;;27.40;97.90;;;;;;5057800;28;21062;-68
2022/06/03 09:47:33;;;;;;;6.10;5.50;;;27.60;97.90;;;;;;5061162;28;20454;-68
2022/06/03 09:50:00;;;;;;;9.13;5.53;;;27.80;98.30;;;;;;5058677;28;20442;-67
2022/06/03 09:52:29;;;;;;;6.00;5.50;;;28.20;98.60;;;;;;5060714;28;20500;-67
2022/06/03 09:55:00;;;;;;;7.03;6.40;;;28.40;97.90;;;;;;5061114;28;20447;-69
2022/06/03 09:57:32;;;;;;;5.53;5.00;;;28.70;95.40;;;;;;5067485;28;21032;-68
2022/06/03 10:00:08;;;;;;;5.30;4.53;;;29.40;95.60;;;;;;5058367;28;20475;-68
2022/06/03 10:02:37;;;;;;;5.70;5.20;;;30.30;94.70;;;;;;5060123;28;20497;-69
2022/06/03 10:05:07;;;;;;;5.33;4.83;;;30.70;91.60;;;;;;5061931;28;20450;-68
2022/06/03 10:07:34;;;;;;;4.90;4.13;;;30.90;92.70;;;;;;5067725;28;20435;-68
2022/06/03 10:12:52;;;;;;;5.13;4.57;;;31.80;89.00;;;;;;5068099;28;20473;-69
2022/06/03 10:15:41;;;;;;;5.23;4.00;;;32.30;87.50;;;;;;5068226;28;20542;-67
2022/06/03 10:18:24;;;;;;;4.10;3.40;;;32.80;87.70;;;;;;5049003;28;20452;-69
2022/06/03 10:20:53;;;;;;;3.63;3.33;;;33.60;81.50;;;;;;5048562;28;20474;-70
2022/06/03 10:23:22;;;;;;;5.07;3.50;;;33.30;80.30;;;;;;5049646;28;20440;-68
2022/06/03 10:25:51;;;;;;;3.83;3.43;;;33.00;78.20;;;;;;5061124;28;20450;-69
2022/06/03 10:28:19;;;;;;;5.33;3.67;;;33.20;79.40;;;;;;5059426;28;20479;-68
2022/06/03 10:30:58;;;;;;;3.63;3.20;;;32.90;78.90;;;;;;5058859;28;20545;-68
2022/06/03 10:33:26;;;;;;;4.93;4.03;;;32.90;78.20;;;;;;5060375;28;20556;-68
2022/06/03 10:35:57;;;;;;;7.10;4.20;;;32.40;79.20;;;;;;5068193;28;20454;-68
2022/06/03 10:38:28;;;;;;;6.77;3.80;;;32.50;80.90;;;;;;5066729;28;20783;-67
2022/06/03 10:40:55;;;;;;;4.53;3.87;;;32.30;78.60;;;;;;5068034;28;20471;-67
2022/06/03 10:43:26;;;;;;;4.63;4.03;;;31.30;81.00;;;;;;5067314;28;20932;-65
2022/06/03 10:46:08;;;;;;;6.87;3.60;;;31.00;83.00;;;;;;5071211;28;20963;-66
2022/06/03 10:48:37;;;;;;;3.70;3.23;;;31.90;80.70;;;;;;5052511;28;20445;-66
2022/06/03 10:51:18;;;;;;;3.90;3.60;;;31.90;81.10;;;;;;5051302;28;20502;-65
2022/06/03 11:02:28;;;;;;;4.70;4.00;;;31.80;81.40;;;;;;5066909;28;21219;-66
2022/06/03 11:05:08;;;;;;;4.50;3.90;;;31.90;80.10;;;;;;5068381;28;20937;-67
2022/06/03 11:07:36;;;;;;;4.60;4.17;;;31.60;80.10;;;;;;5070742;28;20448;-67
2022/06/03 11:10:07;;;;;;;4.53;4.13;;;31.80;80.80;;;;;;5065765;28;20463;-66
2022/06/03 11:12:34;;;;;;;6.77;4.20;;;32.00;79.40;;;;;;5069326;28;20558;-67
2022/06/03 11:15:01;;;;;;;4.70;3.60;;;31.80;78.30;;;;;;5066527;28;20996;-67
2022/06/03 11:17:37;;;;;;;4.40;3.60;;;31.50;80.30;;;;;;5069794;28;20457;-67
2022/06/03 11:20:19;;;;;;;4.83;3.93;;;30.80;81.60;;;;;;5063056;28;20457;-67
2022/06/03 11:22:46;;;;;;;9.40;3.80;;;29.90;84.10;;;;;;5065445;28;20490;-66
2022/06/03 11:25:20;;;;;;;8.57;3.90;;;29.20;85.70;;;;;;5069957;28;20443;-67
2022/06/03 11:27:51;;;;;;;6.03;3.83;;;28.50;86.80;;;;;;5051356;28;20862;-67
2022/06/03 11:30:22;;;;;;;7.00;3.73;;;28.10;88.90;;;;;;5050662;28;20997;-66
2022/06/03 11:32:54;;;;;;;6.37;3.70;;;27.80;90.10;;;;;;5066664;28;20479;-67
2022/06/03 11:35:28;;;;;;;9.97;4.07;;;27.50;90.10;;;;;;5067413;28;20505;-66
2022/06/03 11:37:59;;;;;;;4.43;4.00;;;27.20;91.10;;;;;;5071513;28;20447;-66
2022/06/03 11:40:32;;;;;;;6.00;4.47;;;27.00;91.70;;;;;;5070581;28;20624;-67
2022/06/03 11:43:04;;;;;;;5.70;4.40;;;26.90;92.70;;;;;;5069246;28;20538;-67
2022/06/03 11:45:39;;;;;;;5.47;4.30;;;26.70;93.40;;;;;;5070487;28;20809;-68
2022/06/03 11:48:16;;;;;;;7.33;4.57;;;26.50;93.80;;;;;;5071424;28;20439;-66
2022/06/03 11:50:44;;;;;;;5.77;4.53;;;26.30;94.20;;;;;;5064020;28;20520;-67
2022/06/03 11:53:11;;;;;;;7.40;4.77;;;26.10;94.80;;;;;;5071293;28;20475;-67
2022/06/03 11:55:39;;;;;;;7.60;5.83;;;25.80;95.30;;;;;;5070388;28;20445;-67
2022/06/03 11:58:10;;;;;;;11.13;5.60;;;25.80;96.50;;;;;;5067074;28;20460;-66
2022/06/03 12:00:42;;;;;;;11.77;5.30;;;25.40;98.30;;;;;;5069998;28;20571;-67
2022/06/03 12:03:35;;;;;;;9.30;5.80;;;24.80;99.90;;;;;;5071066;28;20538;-69
2022/06/03 12:06:10;;;;;;;8.53;7.20;;;23.90;99.90;;;;;;5069689;28;20451;-66
2022/06/03 12:08:50;;;;;;;10.93;8.60;;;23.10;99.90;;;;;;5070597;28;20453;-67
2022/06/03 12:14:26;;;;;;;11.07;8.60;;;22.30;99.90;;;;;;5070336;28;20504;-67
2022/06/03 12:16:56;;;;;;;9.80;8.90;;;22.30;99.90;;;;;;5062217;28;20489;-68
2022/06/03 12:19:40;;;;;;;12.40;10.20;;;22.50;99.90;;;;;;5064811;28;20526;-68
2022/06/03 12:22:47;;;;;;;11.40;10.20;;;22.90;99.90;;;;;;5064384;28;20980;-67
2022/06/03 12:25:38;;;;;;;11.40;10.30;;;23.50;99.90;;;;;;5044859;28;20463;-67
2022/06/03 12:28:09;;;;;;;10.10;9.20;;;24.00;99.90;;;;;;5066460;28;20442;-67
2022/06/03 12:30:46;;;;;;;10.40;9.30;;;24.20;99.90;;;;;;5065716;28;21016;-68
2022/06/03 12:33:23;;;;;;;11.60;9.00;;;24.90;99.90;;;;;;5065415;28;20494;-67
2022/06/03 12:35:58;;;;;;;8.70;8.00;;;25.90;99.90;;;;;;5065357;28;20435;-69
2022/06/03 12:38:39;;;;;;;7.87;7.27;;;26.90;99.90;;;;;;5065450;28;20427;-68
2022/06/03 12:41:07;;;;;;;8.30;7.40;;;27.60;99.90;;;;;;5065229;28;21024;-71
2022/06/03 12:43:56;;;;;;;7.77;7.17;;;28.20;99.90;;;;;;5065856;28;20526;-70
2022/06/03 12:46:39;;;;;;;8.90;6.80;;;28.40;99.90;;;;;;5068378;28;20451;-68
2022/06/03 12:49:18;;;;;;;8.27;6.93;;;28.30;99.90;;;;;;5069915;28;20449;-68
2022/06/03 12:52:03;;;;;;;9.07;6.93;;;27.80;99.90;;;;;;5069591;28;20532;-68
2022/06/03 12:54:34;;;;;;;7.73;7.00;;;27.80;99.90;;;;;;5069224;28;20479;-66
2022/06/03 12:57:08;;;;;;;7.37;6.77;;;27.60;99.90;;;;;;5070275;28;20447;-68
2022/06/03 12:59:46;;;;;;;7.23;6.63;;;27.50;99.90;;;;;;5069062;28;20451;-68
2022/06/03 13:02:17;;;;;;;6.80;6.20;;;27.40;99.90;;;;;;5069371;28;20497;-68
2022/06/03 13:05:03;;;;;;;5.90;5.27;;;27.50;99.90;;;;;;5067865;28;20951;-68
2022/06/03 13:07:46;;;;;;;7.60;5.90;;;27.50;99.90;;;;;;5068323;28;20462;-67
2022/06/03 13:10:43;;;;;;;7.07;6.20;;;27.50;99.90;;;;;;5054613;28;20479;-68
2022/06/03 13:13:42;;;;;;;6.17;5.33;;;27.50;99.90;;;;;;5053274;28;20487;-67
2022/06/03 13:16:33;;;;;;;6.07;5.57;;;27.40;99.90;;;;;;5067770;28;20522;-68
2022/06/03 13:19:42;;;;;;;6.60;6.00;;;27.20;99.90;;;;;;5050017;28;20450;-69
2022/06/03 13:22:09;;;;;;;6.73;5.97;;;27.00;99.90;;;;;;5066546;28;20885;-66
2022/06/03 13:24:37;;;;;;;7.10;6.00;;;26.70;99.90;;;;;;5065380;28;20621;-68
2022/06/03 13:27:11;;;;;;;6.50;5.90;;;26.30;99.90;;;;;;5068378;28;20447;-68
2022/06/03 13:30:12;;;;;;;7.50;6.80;;;25.90;99.90;;;;;;5069025;28;20496;-65
2022/06/03 13:32:58;;;;;;;7.10;6.50;;;25.50;99.90;;;;;;5067121;28;20881;-68
2022/06/03 13:35:28;;;;;;;6.80;5.93;;;25.10;99.90;;;;;;5068533;28;20877;-68
2022/06/03 13:38:18;;;;;;;7.37;6.67;;;24.70;99.90;;;;;;5068516;28;20451;-67
2022/06/03 13:43:27;;;;;;;7.63;6.80;;;24.50;99.90;;;;;;5068771;28;20613;-69
2022/06/03 13:46:11;;;;;;;7.77;6.50;;;24.60;99.90;;;;;;5069182;28;20459;-68
2022/06/03 13:48:50;;;;;;;6.93;6.33;;;24.60;99.90;;;;;;5069427;28;20455;-68
2022/06/03 13:51:23;;;;;;;8.07;6.63;;;24.70;99.90;;;;;;5068798;28;20474;-68
2022/06/03 13:53:53;;;;;;;8.00;6.87;;;25.00;99.90;;;;;;5069497;28;20490;-69
2022/06/03 13:56:25;;;;;;;8.30;6.53;;;25.20;99.90;;;;;;5068037;28;20824;-68
2022/06/03 13:58:54;;;;;;;7.30;6.47;;;25.20;99.90;;;;;;5068895;28;20545;-68
2022/06/03 14:01:28;;;;;;;12.63;6.60;;;25.30;99.90;;;;;;5064247;28;20479;-68
2022/06/03 14:04:00;;;;;;;10.10;7.43;;;25.40;99.90;;;;;;5065221;28;20458;-68
2022/06/03 14:06:36;;;;;;;7.80;7.10;;;25.30;99.90;;;;;;5063068;28;20439;-67
2022/06/03 14:09:11;;;;;;;7.57;6.80;;;25.10;99.90;;;;;;5061569;28;20464;-68
2022/06/03 14:11:42;;;;;;;8.00;7.20;;;25.00;99.90;;;;;;5061988;28;20512;-68
2022/06/03 14:14:17;;;;;;;7.27;6.57;;;25.00;99.90;;;;;;5065730;28;20959;-68
2022/06/03 14:16:48;;;;;;;7.60;6.90;;;24.90;99.90;;;;;;5065800;28;20530;-67
2022/06/03 14:19:41;;;;;;;7.07;6.37;;;25.00;99.90;;;;;;5068221;28;20967;-66
2022/06/03 14:22:16;;;;;;;7.40;6.80;;;25.00;99.90;;;;;;5064577;28;20578;-66
2022/06/03 14:24:48;;;;;;;7.17;6.47;;;24.90;99.90;;;;;;5070200;28;20443;-68
2022/06/03 14:27:26;;;;;;;7.37;6.67;;;24.90;99.90;;;;;;5071142;28;20953;-68
2022/06/03 14:29:59;;;;;;;6.93;5.73;;;24.80;99.90;;;;;;5071399;28;20434;-68
2022/06/03 14:32:28;;;;;;;7.90;7.17;;;24.80;99.90;;;;;;5070024;28;20812;-66
2022/06/03 14:35:00;;;;;;;7.13;6.43;;;24.80;99.90;;;;;;5072010;28;20443;-71
2022/06/03 14:37:31;;;;;;;7.60;6.40;;;24.70;99.90;;;;;;5072770;28;20546;-65